Main page
Satellite images 15-day forecastsClimateMarine weather Cyclones Lightning AirportsFAQ Newsletter About
Weather : Europe Africa North America South America Asia Australia-Oceania Others
Languages Contact

Milan, Italy

Malpensa

latitude: 45-37N, longitude: 008-44E, elevation: 234 m


METAR: LIMC 222350Z 05007KT CAVOK 17/M01 Q1014 NOSIG
TAF: LIMC 222300Z 2300/2406 35012KT CAVOK BECMG 2304/2306 VRB05KT

Time: 02:17 (00:17 UTC)

Current weather observation

The report was made 27 minutes ago, at 23:50 UTC  
Wind 07 kt from the Northeast
Temperature 17°C
Humidity 29%
Pressure 1014 hPa
Visibility 10 km or more
no clouds below 1500 m and no cumulonimbus

Change units

Forecast

The report was made 01 hour and 17 minutes ago, at 23:00 UTC  
Forecast valid from 23 at 00 UTC to 24 at 06 UTC
Wind 12 kt from the North
Visibility 10 km or more
no clouds below 1500 m and no cumulonimbus
Becoming
from 23 at 04 UTC to 23 at 06 UTC
Wind 05 kt from variable directions
The information on this site is subject to a disclaimer
Weather : Europe Africa North America South America Asia Australia-Oceania Others
Satellite images 15-day forecastsClimateMarine weather Cyclones Lightning AirportsFAQ Languages Contact Newsletter About